Time;durP1;ratioP1;P1;durP2;ratioP2;P2;SDS_P1;SDS_P2;PMS_P1;PMS_P2;Temp;Humidity;BMP_temperature;BMP_pressure;BME280_temperature;BME280_humidity;BME280_pressure;Samples;Min_cycle;Max_cycle;Signal;HPM_P1;HPM_P2
2022/09/02 00:01:42;;;;;;;2.13;1.30;;;;;;;;;;5074850;28;20195;-45
2022/09/02 00:04:18;;;;;;;2.30;1.27;;;;;;;;;;5074687;28;20215;-45
2022/09/02 00:06:47;;;;;;;3.42;1.60;;;;;;;;;;5075182;28;20198;-45
2022/09/02 00:09:16;;;;;;;1.52;1.13;;;;;;;;;;5074500;28;20203;-46
2022/09/02 00:11:44;;;;;;;1.40;1.05;;;;;;;;;;5074688;28;20203;-45
2022/09/02 00:14:16;;;;;;;2.60;1.17;;;;;;;;;;5074652;28;20505;-45
2022/09/02 00:16:50;;;;;;;2.10;1.20;;;;;;;;;;5074717;28;20210;-45
2022/09/02 00:19:23;;;;;;;2.83;1.20;;;;;;;;;;5074877;28;20195;-45
2022/09/02 00:21:51;;;;;;;2.92;1.48;;;;;;;;;;5074344;28;20203;-44
2022/09/02 00:24:18;;;;;;;2.28;1.48;;;;;;;;;;5074602;28;20196;-44
2022/09/02 00:26:45;;;;;;;2.22;1.20;;;;;;;;;;5074685;28;20203;-47
2022/09/02 00:29:14;;;;;;;1.80;1.27;;;;;;;;;;5074163;28;20207;-45
2022/09/02 00:31:42;;;;;;;2.08;1.38;;;;;;;;;;5056852;28;20207;-45
2022/09/02 00:34:10;;;;;;;2.03;1.30;;;;;;;;;;5056955;28;20207;-44
2022/09/02 00:36:37;;;;;;;1.95;1.25;;;;;;;;;;5056804;28;20203;-45
2022/09/02 00:39:07;;;;;;;3.38;1.73;;;;;;;;;;5057744;28;20196;-46
2022/09/02 00:41:34;;;;;;;2.78;1.30;;;;;;;;;;5074365;28;20200;-46
2022/09/02 00:44:05;;;;;;;2.53;1.10;;;;;;;;;;5074253;28;20204;-45
2022/09/02 00:46:32;;;;;;;3.42;2.35;;;;;;;;;;5074365;28;20261;-45
2022/09/02 00:49:25;;;;;;;4.40;2.00;;;;;;;;;;5078082;28;20218;-45
2022/09/02 00:52:33;;;;;;;2.65;1.95;;;;;;;;;;5078850;28;20221;-45
2022/09/02 00:55:03;;;;;;;4.22;1.90;;;;;;;;;;4981192;28;20230;-45
2022/09/02 00:57:38;;;;;;;2.88;1.67;;;;;;;;;;4981467;28;20288;-47
2022/09/02 01:00:10;;;;;;;3.45;1.80;;;;;;;;;;4980788;28;20197;-45
2022/09/02 01:02:40;;;;;;;6.10;2.58;;;;;;;;;;4997223;28;20394;-46
2022/09/02 01:05:10;;;;;;;2.28;1.55;;;;;;;;;;4997126;28;20210;-45
2022/09/02 01:07:38;;;;;;;1.77;1.42;;;;;;;;;;4997085;28;20290;-46
2022/09/02 01:10:09;;;;;;;3.55;1.52;;;;;;;;;;4981272;28;20217;-45
2022/09/02 01:12:36;;;;;;;5.38;1.88;;;;;;;;;;4981527;28;20213;-45
2022/09/02 01:15:05;;;;;;;3.92;1.60;;;;;;;;;;4980556;28;20225;-44
2022/09/02 01:17:33;;;;;;;4.68;1.65;;;;;;;;;;4996865;28;20210;-45
2022/09/02 01:20:05;;;;;;;2.35;1.73;;;;;;;;;;4980620;28;20239;-49
2022/09/02 01:22:32;;;;;;;2.72;1.67;;;;;;;;;;4996980;28;20223;-45
2022/09/02 01:25:06;;;;;;;3.05;1.42;;;;;;;;;;4980674;28;20276;-46
2022/09/02 01:27:33;;;;;;;3.47;1.48;;;;;;;;;;4996882;28;20522;-46
2022/09/02 01:30:00;;;;;;;1.50;1.17;;;;;;;;;;5073575;28;20647;-46
2022/09/02 01:32:28;;;;;;;2.45;1.40;;;;;;;;;;5077785;28;20312;-45
2022/09/02 01:34:56;;;;;;;2.40;1.40;;;;;;;;;;5059813;28;20672;-45
2022/09/02 01:37:25;;;;;;;4.63;1.30;;;;;;;;;;5060104;28;20199;-45
2022/09/02 01:39:53;;;;;;;2.47;1.48;;;;;;;;;;5060095;28;20290;-45
2022/09/02 01:42:20;;;;;;;2.67;1.65;;;;;;;;;;5059971;28;20214;-45
2022/09/02 01:44:47;;;;;;;2.95;1.55;;;;;;;;;;5076205;28;20246;-46
2022/09/02 01:47:19;;;;;;;2.45;1.60;;;;;;;;;;5076364;28;20302;-45
2022/09/02 01:49:46;;;;;;;2.13;1.40;;;;;;;;;;5077684;28;20204;-46
2022/09/02 01:52:15;;;;;;;3.15;1.58;;;;;;;;;;5077680;28;20210;-45
2022/09/02 01:54:43;;;;;;;3.80;1.50;;;;;;;;;;5059658;28;20203;-47
2022/09/02 01:57:11;;;;;;;2.80;1.52;;;;;;;;;;5059792;28;20214;-46
2022/09/02 01:59:38;;;;;;;3.42;1.70;;;;;;;;;;5076466;28;20266;-45
2022/09/02 02:02:06;;;;;;;2.45;1.35;;;;;;;;;;5077280;28;20233;-46
2022/09/02 02:04:33;;;;;;;2.35;1.23;;;;;;;;;;5059456;28;20210;-45
2022/09/02 02:07:03;;;;;;;2.78;1.23;;;;;;;;;;5059743;28;20353;-45
2022/09/02 02:09:30;;;;;;;2.13;1.50;;;;;;;;;;5059456;28;20228;-46
2022/09/02 02:11:57;;;;;;;2.30;1.27;;;;;;;;;;5077064;28;20195;-47
2022/09/02 02:14:27;;;;;;;1.70;1.10;;;;;;;;;;5076941;28;20215;-45
2022/09/02 02:16:54;;;;;;;2.65;1.60;;;;;;;;;;5076776;28;20232;-45
2022/09/02 02:19:21;;;;;;;2.20;1.45;;;;;;;;;;5077377;28;20209;-45
2022/09/02 02:21:48;;;;;;;2.47;1.88;;;;;;;;;;5014675;28;20204;-47
2022/09/02 02:24:15;;;;;;;2.15;1.58;;;;;;;;;;5015161;28;20292;-45
2022/09/02 02:26:42;;;;;;;5.47;1.50;;;;;;;;;;5015174;28;20227;-45
2022/09/02 02:29:10;;;;;;;2.88;2.03;;;;;;;;;;4998827;28;20212;-47
2022/09/02 02:31:38;;;;;;;3.35;2.22;;;;;;;;;;5015103;28;20240;-44
2022/09/02 02:34:06;;;;;;;3.10;2.15;;;;;;;;;;5015218;28;20201;-45
2022/09/02 02:36:34;;;;;;;4.00;2.20;;;;;;;;;;5014725;28;20225;-45
2022/09/02 02:39:01;;;;;;;2.83;1.80;;;;;;;;;;5014060;28;21106;-48
2022/09/02 02:41:29;;;;;;;4.30;2.67;;;;;;;;;;5013500;28;20224;-45
2022/09/02 02:43:57;;;;;;;4.30;2.17;;;;;;;;;;5014775;28;20220;-44
2022/09/02 02:46:25;;;;;;;3.33;2.45;;;;;;;;;;5015430;28;20300;-47
2022/09/02 02:48:52;;;;;;;2.55;1.98;;;;;;;;;;5014695;28;20202;-46
2022/09/02 02:51:19;;;;;;;4.93;2.55;;;;;;;;;;5014983;28;20523;-45
2022/09/02 02:53:47;;;;;;;7.97;3.47;;;;;;;;;;4998241;28;20197;-46
2022/09/02 02:56:14;;;;;;;10.90;4.10;;;;;;;;;;5014956;28;20314;-45
2022/09/02 02:58:42;;;;;;;10.43;3.95;;;;;;;;;;5028610;28;20199;-45
2022/09/02 03:01:09;;;;;;;9.75;3.45;;;;;;;;;;5059065;28;20196;-45
2022/09/02 03:03:36;;;;;;;7.20;2.53;;;;;;;;;;5058521;28;20200;-45
2022/09/02 03:06:03;;;;;;;4.13;1.90;;;;;;;;;;5058305;28;20207;-46
2022/09/02 03:08:31;;;;;;;4.50;2.50;;;;;;;;;;5057880;28;20307;-45
2022/09/02 03:10:58;;;;;;;5.82;2.80;;;;;;;;;;5075371;28;20718;-45
2022/09/02 03:13:32;;;;;;;4.63;2.53;;;;;;;;;;5058432;28;20555;-45
2022/09/02 03:16:00;;;;;;;5.13;2.40;;;;;;;;;;5057787;28;20736;-46
2022/09/02 03:18:28;;;;;;;4.90;2.22;;;;;;;;;;5041426;28;20195;-45
2022/09/02 03:20:56;;;;;;;3.53;2.05;;;;;;;;;;5057725;28;20528;-45
2022/09/02 03:23:23;;;;;;;4.03;2.15;;;;;;;;;;5075119;28;20231;-47
2022/09/02 03:25:50;;;;;;;5.13;2.60;;;;;;;;;;5041164;28;20285;-45
2022/09/02 03:28:31;;;;;;;2.45;1.55;;;;;;;;;;5074374;28;20200;-45
2022/09/02 03:31:00;;;;;;;5.28;2.20;;;;;;;;;;5057750;28;20211;-45
2022/09/02 03:33:27;;;;;;;2.92;1.90;;;;;;;;;;5057533;28;20206;-45
2022/09/02 03:35:55;;;;;;;3.80;2.30;;;;;;;;;;5057706;28;20223;-46
2022/09/02 03:38:24;;;;;;;4.25;2.05;;;;;;;;;;5057303;28;20583;-47
2022/09/02 03:40:51;;;;;;;2.58;1.60;;;;;;;;;;5057476;28;20203;-45
2022/09/02 03:43:18;;;;;;;2.65;1.80;;;;;;;;;;5057655;28;20199;-44
2022/09/02 03:45:47;;;;;;;3.38;2.05;;;;;;;;;;5057101;28;20727;-46
2022/09/02 03:48:14;;;;;;;5.18;1.42;;;;;;;;;;5057097;28;20199;-45
2022/09/02 03:50:43;;;;;;;3.67;1.48;;;;;;;;;;5057182;28;20580;-46
2022/09/02 03:53:15;;;;;;;4.07;1.70;;;;;;;;;;5074606;28;20211;-45
2022/09/02 03:55:49;;;;;;;3.55;1.40;;;;;;;;;;5057051;28;20227;-45
2022/09/02 03:58:18;;;;;;;5.38;1.55;;;;;;;;;;5057022;28;20563;-45
2022/09/02 04:00:54;;;;;;;5.72;1.80;;;;;;;;;;5057108;28;20200;-46
2022/09/02 04:03:23;;;;;;;4.07;1.75;;;;;;;;;;5057304;28;20206;-45
2022/09/02 04:05:51;;;;;;;1.98;1.38;;;;;;;;;;5073455;28;20631;-44
2022/09/02 04:08:21;;;;;;;4.43;1.65;;;;;;;;;;5057037;28;20210;-45
2022/09/02 04:10:50;;;;;;;1.92;1.35;;;;;;;;;;5056871;28;20643;-48
2022/09/02 04:13:17;;;;;;;3.03;1.13;;;;;;;;;;5050077;28;20208;-47
2022/09/02 04:15:47;;;;;;;5.43;1.42;;;;;;;;;;5046849;28;20298;-46
2022/09/02 04:18:18;;;;;;;2.97;1.33;;;;;;;;;;5046870;28;20203;-46
2022/09/02 04:20:45;;;;;;;3.55;1.55;;;;;;;;;;5065068;28;20206;-45
2022/09/02 04:23:14;;;;;;;4.10;1.40;;;;;;;;;;5060260;28;20203;-45
2022/09/02 04:25:43;;;;;;;2.70;1.42;;;;;;;;;;5053640;28;20253;-45
2022/09/02 04:28:11;;;;;;;3.80;1.60;;;;;;;;;;5063002;28;20264;-45
2022/09/02 04:30:40;;;;;;;10.18;1.85;;;;;;;;;;5075579;28;20203;-45
2022/09/02 04:33:08;;;;;;;3.70;1.60;;;;;;;;;;5080696;28;20202;-45
2022/09/02 04:35:40;;;;;;;2.53;1.52;;;;;;;;;;5064752;28;20244;-51
2022/09/02 04:38:08;;;;;;;5.97;1.65;;;;;;;;;;5057535;28;20230;-47
2022/09/02 04:40:42;;;;;;;3.78;1.48;;;;;;;;;;5058504;28;20234;-49
2022/09/02 04:43:10;;;;;;;2.30;1.55;;;;;;;;;;5053495;28;20211;-47
2022/09/02 04:45:39;;;;;;;6.07;1.55;;;;;;;;;;5054830;28;20532;-48
2022/09/02 04:48:07;;;;;;;4.68;1.42;;;;;;;;;;5051336;28;20232;-45
2022/09/02 04:50:36;;;;;;;2.15;1.70;;;;;;;;;;5041882;28;20228;-46
2022/09/02 04:53:04;;;;;;;4.97;1.60;;;;;;;;;;5058504;28;20219;-45
2022/09/02 04:55:31;;;;;;;4.82;1.48;;;;;;;;;;5078305;28;20215;-45
2022/09/02 04:57:59;;;;;;;2.97;1.20;;;;;;;;;;5070244;28;20224;-45
2022/09/02 05:00:27;;;;;;;1.95;1.27;;;;;;;;;;5079498;28;20219;-46
2022/09/02 05:02:54;;;;;;;1.70;1.35;;;;;;;;;;5080251;28;20223;-45
2022/09/02 05:05:25;;;;;;;2.78;1.23;;;;;;;;;;5062142;28;20265;-51
2022/09/02 05:07:54;;;;;;;4.82;1.77;;;;;;;;;;5079932;28;20687;-46
2022/09/02 05:10:21;;;;;;;5.63;1.40;;;;;;;;;;5062742;28;20707;-48
2022/09/02 05:12:51;;;;;;;3.03;1.20;;;;;;;;;;5062268;28;20230;-49
2022/09/02 05:15:18;;;;;;;1.77;1.60;;;;;;;;;;5062581;28;20224;-45
2022/09/02 05:17:46;;;;;;;1.67;1.42;;;;;;;;;;5062279;28;20242;-45
2022/09/02 05:20:14;;;;;;;2.03;1.55;;;;;;;;;;5062049;28;20676;-45
2022/09/02 05:22:45;;;;;;;5.45;1.77;;;;;;;;;;5062476;28;20694;-44
2022/09/02 05:25:14;;;;;;;3.30;1.52;;;;;;;;;;5080531;28;20595;-45
2022/09/02 05:27:43;;;;;;;2.50;1.50;;;;;;;;;;5055931;28;20242;-46
2022/09/02 05:30:11;;;;;;;2.72;1.60;;;;;;;;;;5062697;28;20212;-47
2022/09/02 05:32:40;;;;;;;2.75;1.85;;;;;;;;;;5062485;28;20227;-49
2022/09/02 05:35:08;;;;;;;4.25;2.13;;;;;;;;;;5056994;28;20211;-48
2022/09/02 05:37:36;;;;;;;6.32;2.50;;;;;;;;;;5054276;28;20313;-47
2022/09/02 05:40:05;;;;;;;5.32;2.53;;;;;;;;;;5055820;28;20667;-45
2022/09/02 05:42:36;;;;;;;5.97;2.42;;;;;;;;;;5039194;28;20322;-48
2022/09/02 05:45:05;;;;;;;6.30;3.30;;;;;;;;;;5039244;28;20244;-48
2022/09/02 05:47:35;;;;;;;5.38;2.00;;;;;;;;;;5039147;28;20220;-46
2022/09/02 05:50:03;;;;;;;4.03;2.10;;;;;;;;;;5039174;28;20220;-47
2022/09/02 05:52:35;;;;;;;4.57;1.77;;;;;;;;;;5055840;28;20246;-45
2022/09/02 05:55:03;;;;;;;6.93;1.70;;;;;;;;;;5076639;28;20226;-45
2022/09/02 05:57:31;;;;;;;5.30;1.63;;;;;;;;;;5058726;28;20695;-47
2022/09/02 06:00:06;;;;;;;2.72;1.83;;;;;;;;;;5059389;28;20231;-44
2022/09/02 06:02:40;;;;;;;8.50;3.25;;;;;;;;;;5076444;28;20277;-45
2022/09/02 06:05:16;;;;;;;4.38;1.70;;;;;;;;;;5059011;28;20659;-46
2022/09/02 06:07:48;;;;;;;4.55;1.45;;;;;;;;;;5058604;28;20248;-45
2022/09/02 06:10:20;;;;;;;4.70;1.95;;;;;;;;;;5057690;28;20449;-45
2022/09/02 06:12:48;;;;;;;2.60;1.80;;;;;;;;;;5058610;28;20219;-46
2022/09/02 06:15:19;;;;;;;3.13;1.50;;;;;;;;;;5059096;28;20230;-46
2022/09/02 06:17:48;;;;;;;2.40;1.30;;;;;;;;;;5057650;28;20235;-46
2022/09/02 06:20:15;;;;;;;2.55;1.50;;;;;;;;;;5058013;28;20604;-46
2022/09/02 06:22:43;;;;;;;5.20;1.02;;;;;;;;;;5041267;28;20329;-45
2022/09/02 06:25:10;;;;;;;2.72;1.20;;;;;;;;;;5059340;28;20265;-46
2022/09/02 06:27:39;;;;;;;3.17;0.90;;;;;;;;;;5075874;28;20204;-45
2022/09/02 06:30:08;;;;;;;3.92;1.05;;;;;;;;;;5058005;28;20214;-50
2022/09/02 06:32:35;;;;;;;1.27;0.77;;;;;;;;;;5074748;28;20204;-45
2022/09/02 06:35:08;;;;;;;2.17;0.90;;;;;;;;;;5057340;28;20194;-49
2022/09/02 06:37:36;;;;;;;1.42;0.85;;;;;;;;;;5058836;28;20219;-46
2022/09/02 06:40:04;;;;;;;2.30;0.90;;;;;;;;;;5058780;28;20581;-48
2022/09/02 06:42:31;;;;;;;3.33;1.00;;;;;;;;;;5075868;28;20207;-46
2022/09/02 06:45:07;;;;;;;3.22;0.90;;;;;;;;;;5058374;28;20682;-46
2022/09/02 06:47:36;;;;;;;1.77;1.00;;;;;;;;;;5058439;28;20373;-46
2022/09/02 06:50:03;;;;;;;1.25;0.88;;;;;;;;;;5059239;28;20294;-48
2022/09/02 06:52:31;;;;;;;3.22;1.23;;;;;;;;;;5058856;28;20204;-46
2022/09/02 06:54:59;;;;;;;2.97;1.20;;;;;;;;;;5075674;28;20199;-48
2022/09/02 06:57:27;;;;;;;1.23;0.70;;;;;;;;;;5074953;28;20229;-45
2022/09/02 07:00:06;;;;;;;1.40;0.80;;;;;;;;;;5059059;28;20179;-47
2022/09/02 07:02:34;;;;;;;4.70;0.70;;;;;;;;;;5057844;28;20231;-46
2022/09/02 07:05:08;;;;;;;1.30;0.73;;;;;;;;;;5057044;28;20561;-46
2022/09/02 07:07:38;;;;;;;3.60;0.88;;;;;;;;;;5058420;28;20229;-47
2022/09/02 07:10:11;;;;;;;2.72;0.90;;;;;;;;;;5050810;28;20711;-46
2022/09/02 07:12:40;;;;;;;1.80;0.68;;;;;;;;;;5056715;28;20187;-49
2022/09/02 07:15:14;;;;;;;2.78;0.60;;;;;;;;;;5057065;28;20195;-49
2022/09/02 07:17:42;;;;;;;1.42;0.77;;;;;;;;;;5073963;28;20219;-48
2022/09/02 07:20:15;;;;;;;3.78;0.63;;;;;;;;;;5052133;28;20277;-48
2022/09/02 07:22:50;;;;;;;2.00;0.60;;;;;;;;;;5058277;28;20184;-48
2022/09/02 07:25:25;;;;;;;1.58;0.50;;;;;;;;;;5076289;28;20188;-45
2022/09/02 07:27:53;;;;;;;6.20;0.70;;;;;;;;;;5057126;28;20265;-46
2022/09/02 07:30:21;;;;;;;0.47;0.47;;;;;;;;;;5056291;28;20294;-45
2022/09/02 07:32:55;;;;;;;0.70;0.55;;;;;;;;;;5058212;28;20233;-47
2022/09/02 07:35:24;;;;;;;0.68;0.50;;;;;;;;;;5058005;28;20199;-51
2022/09/02 07:37:51;;;;;;;2.65;0.80;;;;;;;;;;5057828;28;20257;-46
2022/09/02 07:40:21;;;;;;;1.17;0.50;;;;;;;;;;5057995;28;20207;-46
2022/09/02 07:42:49;;;;;;;0.93;0.40;;;;;;;;;;5057855;28;20584;-46
2022/09/02 07:45:18;;;;;;;3.42;0.60;;;;;;;;;;5051161;28;20314;-47
2022/09/02 07:47:47;;;;;;;1.10;0.40;;;;;;;;;;5074896;28;20218;-46
2022/09/02 07:50:17;;;;;;;0.88;0.35;;;;;;;;;;5057368;28;20252;-48
2022/09/02 07:52:53;;;;;;;0.73;0.52;;;;;;;;;;5074872;28;20670;-48
2022/09/02 07:55:22;;;;;;;1.42;0.50;;;;;;;;;;5057602;28;20223;-47
2022/09/02 07:57:50;;;;;;;1.08;0.50;;;;;;;;;;5055216;28;20223;-47
2022/09/02 08:00:21;;;;;;;2.30;0.55;;;;;;;;;;5035468;28;20215;-47
2022/09/02 08:02:50;;;;;;;1.48;0.52;;;;;;;;;;5036385;28;20235;-47
2022/09/02 08:05:23;;;;;;;0.32;0.30;;;;;;;;;;5035827;28;20192;-46
2022/09/02 08:07:50;;;;;;;1.70;0.30;;;;;;;;;;5053153;28;20298;-48
2022/09/02 08:10:19;;;;;;;2.45;0.55;;;;;;;;;;5054752;28;20621;-48
2022/09/02 08:12:47;;;;;;;2.28;0.30;;;;;;;;;;5053802;28;20204;-47
2022/09/02 08:15:15;;;;;;;0.85;0.30;;;;;;;;;;5050930;28;20226;-51
2022/09/02 08:17:43;;;;;;;4.32;0.57;;;;;;;;;;5053603;28;20281;-49
2022/09/02 08:20:12;;;;;;;0.32;0.28;;;;;;;;;;5054229;28;20648;-45
2022/09/02 08:22:39;;;;;;;1.42;0.45;;;;;;;;;;5053527;28;20294;-46
2022/09/02 08:25:07;;;;;;;1.38;0.50;;;;;;;;;;5054737;28;20196;-48
2022/09/02 08:27:35;;;;;;;0.90;0.40;;;;;;;;;;5054700;28;20211;-46
2022/09/02 08:30:08;;;;;;;3.00;0.50;;;;;;;;;;5054958;28;20199;-46
2022/09/02 08:32:37;;;;;;;1.88;0.60;;;;;;;;;;5054838;28;20207;-47
2022/09/02 08:35:08;;;;;;;0.47;0.40;;;;;;;;;;5054319;28;20215;-46
2022/09/02 08:37:36;;;;;;;1.38;0.38;;;;;;;;;;5037253;28;20328;-46
2022/09/02 08:40:06;;;;;;;0.93;0.30;;;;;;;;;;5054614;28;20212;-47
2022/09/02 08:42:38;;;;;;;1.02;0.50;;;;;;;;;;5037373;28;20207;-47
2022/09/02 08:45:28;;;;;;;24.20;8.38;;;;;;;;;;5054540;28;20250;-47
2022/09/02 08:48:08;;;;;;;0.82;0.57;;;;;;;;;;5044574;28;20271;-46
2022/09/02 08:50:36;;;;;;;0.30;0.22;;;;;;;;;;5037378;28;20214;-49
2022/09/02 08:53:13;;;;;;;0.77;0.50;;;;;;;;;;5054573;28;20286;-47
2022/09/02 08:55:46;;;;;;;1.98;0.82;;;;;;;;;;5054284;28;20633;-46
2022/09/02 08:58:17;;;;;;;7.57;2.95;;;;;;;;;;5036810;28;20227;-46
2022/09/02 09:00:51;;;;;;;2.55;1.20;;;;;;;;;;5054198;28;20196;-46
2022/09/02 09:03:47;;;;;;;2.42;0.80;;;;;;;;;;5037775;28;20196;-46
2022/09/02 09:06:22;;;;;;;10.93;5.07;;;;;;;;;;5037275;28;20613;-46
2022/09/02 09:09:04;;;;;;;3.60;0.80;;;;;;;;;;5038573;28;20212;-46
2022/09/02 09:11:45;;;;;;;0.47;0.35;;;;;;;;;;5035637;28;20645;-46
2022/09/02 09:14:46;;;;;;;2.60;0.40;;;;;;;;;;5040663;28;20230;-46
2022/09/02 09:17:16;;;;;;;2.22;0.70;;;;;;;;;;5057760;28;20247;-49
2022/09/02 09:19:53;;;;;;;2.42;0.50;;;;;;;;;;5040828;28;20208;-50
2022/09/02 09:22:27;;;;;;;0.57;0.40;;;;;;;;;;5058070;28;20188;-46
2022/09/02 09:24:56;;;;;;;1.65;0.40;;;;;;;;;;5040487;28;20633;-49
2022/09/02 09:27:23;;;;;;;1.20;0.45;;;;;;;;;;5057534;28;20212;-47
2022/09/02 09:29:51;;;;;;;1.25;0.50;;;;;;;;;;5057640;28;20200;-46
2022/09/02 09:32:40;;;;;;;1.60;0.50;;;;;;;;;;5056488;28;20204;-49
2022/09/02 09:35:09;;;;;;;1.17;0.47;;;;;;;;;;5039693;28;20214;-47
2022/09/02 09:37:36;;;;;;;1.50;0.52;;;;;;;;;;5057296;28;20238;-48
2022/09/02 09:40:21;;;;;;;0.40;0.40;;;;;;;;;;5057182;28;20210;-47
2022/09/02 09:42:56;;;;;;;0.57;0.47;;;;;;;;;;5057524;28;20200;-46
2022/09/02 09:45:46;;;;;;;2.20;0.50;;;;;;;;;;5040544;28;20234;-46
2022/09/02 09:48:17;;;;;;;0.60;0.43;;;;;;;;;;5040142;28;20366;-47
2022/09/02 09:50:56;;;;;;;7.72;1.42;;;;;;;;;;5057449;28;20302;-46
2022/09/02 09:53:31;;;;;;;3.25;0.50;;;;;;;;;;5057255;28;20199;-49
2022/09/02 09:56:06;;;;;;;2.47;0.60;;;;;;;;;;5057091;28;20536;-47
2022/09/02 09:58:39;;;;;;;0.60;0.40;;;;;;;;;;5056599;28;20220;-48
2022/09/02 10:01:23;;;;;;;0.73;0.35;;;;;;;;;;5056757;28;20254;-52
2022/09/02 10:03:54;;;;;;;2.75;0.50;;;;;;;;;;5039943;28;20196;-48
2022/09/02 10:06:30;;;;;;;0.98;0.38;;;;;;;;;;5051771;28;20212;-46
2022/09/02 10:09:13;;;;;;;0.82;0.38;;;;;;;;;;5056790;28;20196;-51
2022/09/02 10:11:55;;;;;;;3.33;0.50;;;;;;;;;;5056823;28;20617;-48
2022/09/02 10:14:25;;;;;;;0.63;0.40;;;;;;;;;;5057137;28;20180;-48
2022/09/02 10:17:10;;;;;;;0.98;0.55;;;;;;;;;;5040559;28;20188;-46
2022/09/02 10:19:46;;;;;;;2.60;1.02;;;;;;;;;;5056375;28;20180;-48
2022/09/02 10:22:51;;;;;;;1.67;0.32;;;;;;;;;;5039404;28;20199;-48
2022/09/02 10:25:29;;;;;;;1.38;0.43;;;;;;;;;;5056955;28;20184;-46
2022/09/02 10:28:14;;;;;;;0.73;0.40;;;;;;;;;;5056726;28;20208;-46
2022/09/02 10:30:56;;;;;;;0.57;0.40;;;;;;;;;;5056911;28;20184;-47
2022/09/02 10:33:29;;;;;;;8.23;1.48;;;;;;;;;;5056945;28;20192;-48
2022/09/02 10:36:10;;;;;;;1.33;0.40;;;;;;;;;;5038660;28;20203;-49
2022/09/02 10:38:46;;;;;;;7.78;1.35;;;;;;;;;;5039211;28;20212;-50
2022/09/02 10:41:44;;;;;;;0.98;0.70;;;;;;;;;;5038651;28;20578;-46
2022/09/02 10:44:25;;;;;;;0.82;0.50;;;;;;;;;;5055347;28;20556;-49
2022/09/02 10:47:03;;;;;;;1.85;0.47;;;;;;;;;;5038722;28;20188;-47
2022/09/02 10:49:50;;;;;;;1.48;0.47;;;;;;;;;;5056553;28;20184;-50
2022/09/02 10:52:17;;;;;;;0.73;0.47;;;;;;;;;;5056589;28;20535;-50
2022/09/02 10:55:10;;;;;;;0.73;0.30;;;;;;;;;;5069867;28;20608;-46
2022/09/02 10:57:51;;;;;;;1.65;0.38;;;;;;;;;;5062483;28;20215;-46
2022/09/02 11:00:21;;;;;;;0.70;0.40;;;;;;;;;;5022606;28;20216;-47
2022/09/02 11:03:02;;;;;;;1.38;0.45;;;;;;;;;;5061782;28;20207;-46
2022/09/02 11:05:41;;;;;;;0.93;0.47;;;;;;;;;;5071507;28;20250;-50
2022/09/02 11:08:15;;;;;;;1.35;0.40;;;;;;;;;;5057241;28;20687;-46
2022/09/02 11:11:10;;;;;;;1.20;0.40;;;;;;;;;;5050147;28;20302;-48
2022/09/02 11:13:55;;;;;;;2.92;0.55;;;;;;;;;;5026464;28;20258;-50
2022/09/02 11:16:33;;;;;;;1.48;0.52;;;;;;;;;;5070830;28;20238;-46
2022/09/02 11:19:14;;;;;;;1.00;0.40;;;;;;;;;;5073946;28;20678;-45
2022/09/02 11:21:54;;;;;;;2.00;0.35;;;;;;;;;;5075175;28;20290;-46
2022/09/02 11:24:30;;;;;;;1.88;0.60;;;;;;;;;;5074959;28;20195;-47
2022/09/02 11:27:04;;;;;;;0.50;0.30;;;;;;;;;;5056483;28;20594;-46
2022/09/02 11:30:06;;;;;;;3.53;0.65;;;;;;;;;;5058547;28;20270;-47
2022/09/02 11:32:42;;;;;;;3.53;0.32;;;;;;;;;;5055235;28;20199;-46
2022/09/02 11:35:13;;;;;;;0.65;0.35;;;;;;;;;;5073056;28;20188;-55
2022/09/02 11:37:46;;;;;;;1.60;0.40;;;;;;;;;;5035487;28;20231;-48
2022/09/02 11:40:28;;;;;;;0.50;0.30;;;;;;;;;;5054095;28;20677;-46
2022/09/02 11:43:42;;;;;;;0.63;0.50;;;;;;;;;;5054052;28;20285;-50
2022/09/02 11:46:37;;;;;;;0.68;0.38;;;;;;;;;;5053109;28;20235;-51
2022/09/02 11:49:19;;;;;;;1.75;0.50;;;;;;;;;;5035517;28;20553;-46
2022/09/02 11:51:46;;;;;;;0.43;0.20;;;;;;;;;;5052641;28;20281;-46
2022/09/02 11:54:15;;;;;;;0.95;0.52;;;;;;;;;;5067766;28;20950;-48
2022/09/02 11:56:46;;;;;;;1.85;0.50;;;;;;;;;;5058008;28;20227;-46
2022/09/02 11:59:22;;;;;;;0.85;0.50;;;;;;;;;;5074343;28;20235;-46
2022/09/02 12:01:52;;;;;;;1.13;0.43;;;;;;;;;;5074193;28;20318;-48
2022/09/02 12:04:25;;;;;;;1.20;0.30;;;;;;;;;;5073497;28;20285;-47
2022/09/02 12:07:12;;;;;;;0.60;0.30;;;;;;;;;;5073444;28;20239;-47
2022/09/02 12:09:53;;;;;;;0.75;0.40;;;;;;;;;;5065209;28;20222;-45
2022/09/02 12:12:35;;;;;;;1.40;0.30;;;;;;;;;;5067825;28;20226;-54
2022/09/02 12:15:03;;;;;;;2.08;0.73;;;;;;;;;;5070968;28;20671;-46
2022/09/02 12:17:36;;;;;;;1.45;0.40;;;;;;;;;;5074174;28;20223;-50
2022/09/02 12:20:08;;;;;;;1.25;0.52;;;;;;;;;;5036831;28;20234;-48
2022/09/02 12:22:37;;;;;;;5.60;2.55;;;;;;;;;;5057728;28;20314;-47
2022/09/02 12:25:24;;;;;;;0.60;0.40;;;;;;;;;;5063599;28;20239;-48
2022/09/02 12:28:16;;;;;;;2.70;0.60;;;;;;;;;;5064621;28;20227;-49
2022/09/02 12:31:00;;;;;;;0.80;0.30;;;;;;;;;;5043071;28;20239;-46
2022/09/02 12:33:33;;;;;;;1.98;0.40;;;;;;;;;;5066003;28;20230;-45
2022/09/02 12:36:03;;;;;;;2.08;0.40;;;;;;;;;;5049106;28;20309;-48
2022/09/02 12:38:35;;;;;;;0.80;0.50;;;;;;;;;;5048115;28;20610;-45
2022/09/02 12:41:05;;;;;;;1.27;0.50;;;;;;;;;;5073805;28;20322;-47
2022/09/02 12:43:55;;;;;;;0.80;0.50;;;;;;;;;;5057810;28;20218;-46
2022/09/02 12:46:45;;;;;;;2.65;0.40;;;;;;;;;;5077981;28;20231;-46
2022/09/02 12:49:34;;;;;;;0.93;0.60;;;;;;;;;;5053127;28;20215;-47
2022/09/02 12:52:11;;;;;;;5.00;2.22;;;;;;;;;;5065641;28;20253;-46
2022/09/02 12:54:38;;;;;;;0.73;0.50;;;;;;;;;;5072361;28;20279;-45
2022/09/02 12:57:06;;;;;;;1.00;0.45;;;;;;;;;;5068034;28;20215;-49
2022/09/02 12:59:35;;;;;;;7.40;2.08;;;;;;;;;;5037520;28;20311;-46
2022/09/02 13:02:13;;;;;;;0.80;0.40;;;;;;;;;;5045232;28;20234;-45
2022/09/02 13:05:01;;;;;;;1.27;0.60;;;;;;;;;;5074199;28;20253;-46
2022/09/02 13:07:34;;;;;;;2.42;0.40;;;;;;;;;;5059808;28;20235;-46
2022/09/02 13:10:25;;;;;;;0.30;0.13;;;;;;;;;;5077180;28;20223;-49
2022/09/02 13:13:17;;;;;;;1.17;0.50;;;;;;;;;;5040230;28;20293;-45
2022/09/02 13:16:00;;;;;;;1.60;0.43;;;;;;;;;;5057321;28;20234;-50
2022/09/02 13:18:58;;;;;;;1.08;0.40;;;;;;;;;;5057126;28;20240;-45
2022/09/02 13:21:52;;;;;;;6.10;0.40;;;;;;;;;;5057030;28;20262;-45
2022/09/02 13:24:54;;;;;;;1.42;0.30;;;;;;;;;;5057263;28;20236;-46
2022/09/02 13:27:36;;;;;;;1.95;0.40;;;;;;;;;;5056619;28;20228;-47
2022/09/02 13:30:40;;;;;;;0.30;0.30;;;;;;;;;;5056390;28;20220;-47
2022/09/02 13:33:10;;;;;;;1.45;0.40;;;;;;;;;;5064248;28;20220;-47
2022/09/02 13:35:39;;;;;;;0.77;0.30;;;;;;;;;;5066286;28;20215;-48
2022/09/02 13:38:13;;;;;;;1.00;0.43;;;;;;;;;;5065615;28;20318;-51
2022/09/02 13:40:44;;;;;;;1.65;0.30;;;;;;;;;;5066560;28;20284;-46
2022/09/02 13:43:12;;;;;;;3.60;1.00;;;;;;;;;;5066528;28;20227;-51
2022/09/02 13:45:39;;;;;;;0.77;0.38;;;;;;;;;;5066250;28;20219;-47
2022/09/02 13:48:24;;;;;;;2.17;0.45;;;;;;;;;;5065501;28;20227;-46
2022/09/02 13:50:53;;;;;;;5.78;2.10;;;;;;;;;;5045969;28;20246;-48
2022/09/02 13:53:37;;;;;;;3.25;0.60;;;;;;;;;;5049034;28;20219;-48
2022/09/02 13:56:27;;;;;;;1.98;0.45;;;;;;;;;;5073974;28;20227;-50
2022/09/02 13:58:57;;;;;;;0.93;0.47;;;;;;;;;;5073658;28;20301;-47
2022/09/02 14:01:33;;;;;;;1.08;0.30;;;;;;;;;;5076335;28;20224;-48
2022/09/02 14:04:03;;;;;;;1.17;0.45;;;;;;;;;;5074356;28;20234;-47
2022/09/02 14:06:41;;;;;;;1.95;0.50;;;;;;;;;;5066353;28;20536;-47
2022/09/02 14:09:38;;;;;;;4.40;0.52;;;;;;;;;;5047297;28;20224;-46
2022/09/02 14:12:05;;;;;;;2.60;0.57;;;;;;;;;;4994115;28;20218;-48
2022/09/02 14:14:33;;;;;;;4.57;0.60;;;;;;;;;;4994421;28;20319;-46
2022/09/02 14:17:21;;;;;;;0.98;0.40;;;;;;;;;;4994905;28;20623;-49
2022/09/02 14:19:48;;;;;;;1.05;0.70;;;;;;;;;;4994970;28;20582;-47
2022/09/02 14:22:29;;;;;;;0.65;0.40;;;;;;;;;;4995001;28;20243;-45
2022/09/02 14:24:56;;;;;;;0.45;0.40;;;;;;;;;;4994398;28;20233;-46
2022/09/02 14:27:23;;;;;;;0.90;0.60;;;;;;;;;;4994251;28;20222;-46
2022/09/02 14:29:56;;;;;;;2.05;0.65;;;;;;;;;;4994213;28;20214;-47
2022/09/02 14:32:25;;;;;;;8.80;0.70;;;;;;;;;;4994401;28;20221;-46
2022/09/02 14:35:10;;;;;;;3.42;0.70;;;;;;;;;;4994186;28;20628;-46
2022/09/02 14:37:56;;;;;;;2.50;0.30;;;;;;;;;;4994845;28;20674;-46
2022/09/02 14:40:38;;;;;;;4.25;0.50;;;;;;;;;;4993932;28;20222;-47
2022/09/02 14:43:13;;;;;;;3.58;0.52;;;;;;;;;;4978427;28;20333;-48
2022/09/02 14:45:45;;;;;;;0.70;0.40;;;;;;;;;;4994515;28;20237;-49
2022/09/02 14:48:19;;;;;;;9.27;1.95;;;;;;;;;;5016513;28;20227;-47
2022/09/02 14:50:46;;;;;;;0.43;0.40;;;;;;;;;;5055417;28;20243;-46
2022/09/02 14:53:19;;;;;;;0.20;0.20;;;;;;;;;;5037812;28;20606;-49
2022/09/02 14:55:51;;;;;;;3.63;1.10;;;;;;;;;;5037397;28;20285;-47
2022/09/02 14:58:20;;;;;;;3.83;0.88;;;;;;;;;;5055336;28;20285;-46
2022/09/02 15:01:08;;;;;;;0.95;0.47;;;;;;;;;;5056029;28;20679;-47
2022/09/02 15:03:37;;;;;;;0.73;0.50;;;;;;;;;;5071381;28;20301;-49
2022/09/02 15:06:04;;;;;;;1.67;0.60;;;;;;;;;;5075270;28;20227;-49
2022/09/02 15:08:31;;;;;;;3.00;0.50;;;;;;;;;;5074807;28;20215;-48
2022/09/02 15:10:59;;;;;;;1.02;0.30;;;;;;;;;;5064420;28;20235;-47
2022/09/02 15:13:32;;;;;;;9.77;0.60;;;;;;;;;;5063078;28;20231;-47
2022/09/02 15:16:01;;;;;;;1.73;0.30;;;;;;;;;;5057856;28;20219;-46
2022/09/02 15:18:29;;;;;;;0.68;0.40;;;;;;;;;;5054995;28;20256;-48